Time,TemperatureF,DewpointF,PressureIn,WindDirection,WindDirectionDegrees,WindSpeedMPH,WindSpeedGustMPH,Humidity,HourlyPrecipIn,Conditions,Clouds,dailyrainin,SoftwareType,DateUTC
2013-01-24 07:02:00,67.0,63.0,30.05,East,88,0.0,0.0,88,0.00,,,0.35,,2013-01-24 17:02:00,
2013-01-24 07:11:00,67.0,63.0,30.05,East,88,0.0,0.0,88,0.00,,,0.35,,2013-01-24 17:11:00,
2013-01-24 07:21:00,67.0,63.0,30.06,East,88,2.0,5.0,88,0.00,,,0.35,,2013-01-24 17:21:00,
2013-01-24 07:31:00,67.0,63.0,30.06,NNE,12,1.0,5.0,88,0.00,,,0.35,,2013-01-24 17:31:00,
2013-01-24 07:42:00,67.0,63.0,30.06,NNE,12,1.0,5.0,88,0.00,,,0.35,,2013-01-24 17:42:00,
2013-01-24 07:52:00,67.0,64.0,30.07,North,11,4.0,7.0,89,0.00,,,0.35,,2013-01-24 17:52:00,
2013-01-24 08:01:00,67.0,64.0,30.07,North,351,2.0,6.0,90,0.00,,,0.35,,2013-01-24 18:01:00,
2013-01-24 08:11:00,67.0,64.0,30.07,NE,55,0.0,7.0,91,0.03,,,0.38,,2013-01-24 18:11:00,
2013-01-24 08:21:00,67.0,64.0,30.07,NE,55,0.0,7.0,91,0.03,,,0.38,,2013-01-24 18:21:00,
2013-01-24 08:31:00,67.0,64.0,30.07,ENE,78,2.0,4.0,91,0.03,,,0.38,,2013-01-24 18:31:00,
2013-01-24 08:41:00,67.0,64.0,30.07,ENE,78,2.0,4.0,91,0.03,,,0.38,,2013-01-24 18:41:00,
2013-01-24 08:53:00,68.0,65.0,30.08,NNW,337,1.0,4.0,90,0.03,,,0.38,,2013-01-24 18:53:00,
2013-01-24 09:01:00,68.0,66.0,30.08,NE,37,0.0,4.0,92,0.03,,,0.38,,2013-01-24 19:01:00,
2013-01-24 09:11:00,70.0,66.0,30.08,NE,52,2.0,6.0,88,0.00,,,0.38,,2013-01-24 19:11:00,
2013-01-24 09:21:00,70.0,66.0,30.08,NE,52,2.0,6.0,88,0.00,,,0.38,,2013-01-24 19:21:00,
2013-01-24 09:32:00,71.0,67.0,30.09,ENE,64,4.0,9.0,86,0.00,,,0.38,,2013-01-24 19:32:00,
2013-01-24 09:41:00,70.0,66.0,30.09,East,86,5.0,13.0,87,0.00,,,0.38,,2013-01-24 19:41:00,
2013-01-24 09:52:00,70.0,66.0,30.09,East,86,5.0,13.0,87,0.00,,,0.38,,2013-01-24 19:52:00,
2013-01-24 10:01:00,71.0,67.0,30.09,NW,308,2.0,8.0,87,0.00,,,0.38,,2013-01-24 20:01:00,
2013-01-24 10:11:00,71.0,67.0,30.09,NW,308,2.0,8.0,87,0.00,,,0.38,,2013-01-24 20:11:00,
2013-01-24 10:21:00,71.0,66.0,30.09,NW,315,4.0,7.0,85,0.00,,,0.38,,2013-01-24 20:21:00,
2013-01-24 10:32:00,70.0,66.0,30.09,NNW,334,3.0,9.0,87,0.00,,,0.38,,2013-01-24 20:32:00,
2013-01-24 10:42:00,70.0,66.0,30.09,NNW,334,3.0,9.0,87,0.00,,,0.38,,2013-01-24 20:42:00,
2013-01-24 10:52:00,69.0,65.0,30.09,NNE,17,1.0,7.0,88,0.01,,,0.39,,2013-01-24 20:52:00,
2013-01-24 11:01:00,69.0,66.0,30.09,ENE,76,4.0,10.0,89,0.02,,,0.40,,2013-01-24 21:01:00,
2013-01-24 11:11:00,69.0,66.0,30.09,ENE,76,4.0,10.0,89,0.02,,,0.40,,2013-01-24 21:11:00,
2013-01-24 11:21:00,69.0,66.0,30.09,NE,49,6.0,9.0,89,0.06,,,0.44,,2013-01-24 21:21:00,
2013-01-24 11:32:00,68.0,65.0,30.09,ENE,70,4.0,11.0,91,0.13,,,0.51,,2013-01-24 21:32:00,
2013-01-24 11:42:00,68.0,65.0,30.09,ENE,70,4.0,11.0,91,0.13,,,0.51,,2013-01-24 21:42:00,
2013-01-24 11:52:00,68.0,65.0,30.08,NE,42,2.0,10.0,91,0.14,,,0.53,,2013-01-24 21:52:00,
2013-01-24 12:02:00,69.0,66.0,30.08,East,90,0.0,8.0,90,0.13,,,0.53,,2013-01-24 22:02:00,
2013-01-24 12:11:00,69.0,66.0,30.08,East,90,0.0,8.0,90,0.13,,,0.53,,2013-01-24 22:11:00,
2013-01-24 12:21:00,68.0,66.0,30.08,SE,135,5.0,9.0,92,0.10,,,0.55,,2013-01-24 22:21:00,
2013-01-24 12:31:00,68.0,66.0,30.08,SE,136,3.0,7.0,94,0.07,,,0.58,,2013-01-24 22:31:00,
2013-01-24 12:41:00,68.0,66.0,30.08,SE,136,3.0,7.0,94,0.07,,,0.58,,2013-01-24 22:41:00,
2013-01-24 12:52:00,68.0,67.0,30.07,SE,138,0.0,7.0,95,0.05,,,0.58,,2013-01-24 22:52:00,
2013-01-24 13:01:00,68.0,67.0,30.06,SSE,150,1.0,6.0,96,0.05,,,0.58,,2013-01-24 23:01:00,
2013-01-24 13:11:00,68.0,67.0,30.06,SSE,150,1.0,6.0,96,0.05,,,0.58,,2013-01-24 23:11:00,
2013-01-24 13:21:00,67.0,66.0,30.06,SSE,150,1.0,6.0,95,0.06,,,0.61,,2013-01-24 23:21:00,
2013-01-24 13:31:00,68.0,67.0,30.06,East,94,4.0,8.0,95,0.06,,,0.64,,2013-01-24 23:31:00,
2013-01-24 13:42:00,68.0,67.0,30.06,East,94,4.0,8.0,95,0.06,,,0.64,,2013-01-24 23:42:00,
2013-01-24 13:52:00,67.0,65.0,30.05,NE,55,3.0,10.0,94,0.07,,,0.65,,2013-01-24 23:52:00,
2013-01-24 14:01:00,68.0,65.0,30.04,East,91,8.0,10.0,91,0.08,,,0.66,,2013-01-25 00:01:00,
2013-01-24 14:11:00,68.0,65.0,30.04,East,91,8.0,10.0,91,0.08,,,0.66,,2013-01-25 00:11:00,
2013-01-24 14:21:00,68.0,66.0,30.04,East,91,10.0,15.0,93,0.05,,,0.66,,2013-01-25 00:21:00,
2013-01-24 14:31:00,69.0,66.0,30.03,NE,42,9.0,17.0,91,0.03,,,0.67,,2013-01-25 00:31:00,
2013-01-24 14:41:00,69.0,66.0,30.03,NE,42,9.0,17.0,91,0.03,,,0.67,,2013-01-25 00:41:00,
2013-01-24 14:52:00,71.0,67.0,30.03,ENE,73,6.0,11.0,86,0.02,,,0.67,,2013-01-25 00:52:00,
2013-01-24 15:01:00,70.0,64.0,30.02,ENE,57,7.0,14.0,81,0.01,,,0.67,,2013-01-25 01:01:00,
2013-01-24 15:11:00,70.0,64.0,30.02,ENE,57,7.0,14.0,81,0.01,,,0.67,,2013-01-25 01:11:00,
2013-01-24 15:21:00,71.0,64.0,30.02,North,360,5.0,11.0,79,0.01,,,0.67,,2013-01-25 01:21:00,
2013-01-24 15:31:00,72.0,67.0,30.02,SSE,158,2.0,6.0,83,0.00,,,0.67,,2013-01-25 01:31:00,
2013-01-24 15:41:00,72.0,67.0,30.02,SSE,158,2.0,6.0,83,0.00,,,0.67,,2013-01-25 01:41:00,
2013-01-24 15:52:00,71.0,67.0,30.02,East,100,5.0,9.0,86,0.00,,,0.67,,2013-01-25 01:52:00,
2013-01-24 16:01:00,70.0,66.0,30.02,ESE,120,5.0,9.0,86,0.00,,,0.67,,2013-01-25 02:01:00,
2013-01-24 16:11:00,70.0,66.0,30.02,ESE,120,5.0,9.0,86,0.00,,,0.67,,2013-01-25 02:11:00,
2013-01-24 16:22:00,71.0,67.0,30.02,ESE,109,5.0,9.0,87,0.00,,,0.67,,2013-01-25 02:22:00,
2013-01-24 16:31:00,71.0,67.0,30.03,East,101,6.0,12.0,87,0.00,,,0.67,,2013-01-25 02:31:00,
2013-01-24 16:41:00,70.0,66.0,30.03,East,96,5.0,10.0,88,0.00,,,0.67,,2013-01-25 02:41:00,
2013-01-24 16:52:00,70.0,66.0,30.03,East,96,5.0,10.0,88,0.00,,,0.67,,2013-01-25 02:52:00,
2013-01-24 17:01:00,70.0,66.0,30.03,East,86,6.0,9.0,86,0.00,,,0.67,,2013-01-25 03:01:00,
2013-01-24 17:11:00,70.0,65.0,30.04,East,84,4.0,10.0,84,0.00,,,0.67,,2013-01-25 03:11:00,
2013-01-24 17:21:00,70.0,65.0,30.04,East,84,4.0,10.0,84,0.00,,,0.67,,2013-01-25 03:21:00,
2013-01-24 17:32:00,70.0,64.0,30.04,East,96,2.0,9.0,82,0.00,,,0.67,,2013-01-25 03:32:00,
2013-01-24 17:41:00,70.0,64.0,30.04,East,96,2.0,9.0,82,0.00,,,0.67,,2013-01-25 03:41:00,
2013-01-24 17:52:00,71.0,65.0,30.03,East,85,5.0,8.0,80,0.00,,,0.67,,2013-01-25 03:52:00,
2013-01-24 18:01:00,71.0,64.0,30.04,East,94,2.0,6.0,78,0.00,,,0.67,,2013-01-25 04:01:00,
2013-01-24 18:11:00,70.0,64.0,30.03,East,96,5.0,8.0,80,0.00,,,0.67,,2013-01-25 04:11:00,
2013-01-24 18:22:00,70.0,64.0,30.03,East,96,5.0,8.0,80,0.00,,,0.67,,2013-01-25 04:22:00,
2013-01-24 18:31:00,70.0,64.0,30.04,East,87,2.0,8.0,82,0.00,,,0.67,,2013-01-25 04:31:00,
2013-01-24 18:41:00,70.0,64.0,30.04,East,87,2.0,8.0,82,0.00,,,0.67,,2013-01-25 04:41:00,
2013-01-24 18:51:00,70.0,65.0,30.04,East,87,3.0,8.0,83,0.00,,,0.67,,2013-01-25 04:51:00,
2013-01-24 19:03:00,70.0,65.0,30.05,East,87,4.0,8.0,84,0.00,,,0.67,,2013-01-25 05:03:00,
2013-01-24 19:12:00,70.0,65.0,30.05,East,82,3.0,8.0,84,0.00,,,0.67,,2013-01-25 05:12:00,
2013-01-24 19:22:00,70.0,65.0,30.05,East,82,3.0,8.0,84,0.00,,,0.67,,2013-01-25 05:22:00,
2013-01-24 19:31:00,69.0,64.0,30.05,East,90,2.0,7.0,85,0.00,,,0.67,,2013-01-25 05:31:00,
2013-01-24 19:42:00,69.0,64.0,30.05,East,90,2.0,7.0,85,0.00,,,0.67,,2013-01-25 05:42:00,
2013-01-24 19:52:00,69.0,64.0,30.05,East,79,6.0,9.0,85,0.00,,,0.67,,2013-01-25 05:52:00,
2013-01-24 20:01:00,69.0,65.0,30.06,East,86,2.0,8.0,86,0.00,,,0.67,,2013-01-25 06:01:00,
2013-01-24 20:11:00,69.0,65.0,30.06,East,86,2.0,8.0,86,0.00,,,0.67,,2013-01-25 06:11:00,
2013-01-24 20:21:00,69.0,65.0,30.06,East,85,1.0,7.0,86,0.00,,,0.67,,2013-01-25 06:21:00,
2013-01-24 20:31:00,69.0,65.0,30.06,East,79,2.0,7.0,86,0.00,,,0.67,,2013-01-25 06:31:00,
2013-01-24 20:41:00,69.0,65.0,30.07,ENE,73,1.0,5.0,86,0.00,,,0.67,,2013-01-25 06:41:00,
2013-01-24 20:52:00,69.0,65.0,30.07,ENE,73,1.0,5.0,86,0.00,,,0.67,,2013-01-25 06:52:00,
2013-01-24 21:01:00,69.0,65.0,30.07,East,90,1.0,7.0,87,0.00,,,0.67,,2013-01-25 07:01:00,
2013-01-24 21:11:00,69.0,65.0,30.07,East,90,1.0,7.0,87,0.00,,,0.67,,2013-01-25 07:11:00,
2013-01-24 21:21:00,69.0,65.0,30.07,ENE,76,2.0,9.0,87,0.00,,,0.67,,2013-01-25 07:21:00,
2013-01-24 21:31:00,69.0,65.0,30.07,East,81,1.0,9.0,87,0.00,,,0.67,,2013-01-25 07:31:00,
2013-01-24 21:41:00,69.0,65.0,30.07,East,81,1.0,9.0,87,0.00,,,0.67,,2013-01-25 07:41:00,
2013-01-24 21:51:00,69.0,65.0,30.07,East,83,4.0,9.0,86,0.00,,,0.67,,2013-01-25 07:51:00,
2013-01-24 22:01:00,69.0,65.0,30.07,ENE,69,1.0,7.0,86,0.00,,,0.67,,2013-01-25 08:01:00,
2013-01-24 22:11:00,69.0,64.0,30.07,ENE,76,0.0,6.0,85,0.00,,,0.67,,2013-01-25 08:11:00,
2013-01-24 22:21:00,69.0,64.0,30.07,ENE,76,0.0,6.0,85,0.00,,,0.67,,2013-01-25 08:21:00,
2013-01-24 22:31:00,69.0,64.0,30.08,ENE,76,0.0,5.0,85,0.00,,,0.67,,2013-01-25 08:31:00,
2013-01-24 22:41:00,69.0,64.0,30.08,ENE,76,0.0,5.0,85,0.00,,,0.67,,2013-01-25 08:41:00,
2013-01-24 22:52:00,69.0,64.0,30.08,ENE,76,0.0,5.0,85,0.00,,,0.67,,2013-01-25 08:52:00,
2013-01-24 23:01:00,69.0,64.0,30.08,ENE,76,0.0,5.0,85,0.00,,,0.67,,2013-01-25 09:01:00,